Eastman, GA

10:38 AM EDT on May 27, 2015 (GMT -0400)
Eastman | | Change Station
CLOSE
Current Station
Personal Weather Station
Location: Eastman, GA
Elevation: 381 ft
Nearby Weather Stations

Elev 381 ft 32.20 °N, 83.18 °W | Updated 31 seconds ago

Overcast
Overcast
79.5 °F
Feels Like 85 °F
N
2.7
Wind Variable Wind from WNW

Today
High -- | Low -- °F
--% Chance of Precip.
Yesterday
High -- | Low -- °F
Precip. -- in
6:28 AM 8:31 PM
Waxing Gibbous, 67% visible
Pressure 30.28 in
Visibility 10.0 miles
Clouds Overcast 1100 ft
Heat Index 85 °F
Dew Point 79 °F
Humidity 99%
Rainfall 0.00 in
Snow Depth Not available.
UV 2 out of 12
Pollen .60 out of 12
Air Quality Not available.
Flu Activity Sporadic
METAR KEZM 271415Z AUTO 15006KT 10SM OVC011 26/24 A3028 RMK AO2 T02550243

More Conditions Fewer Conditions

Pressure 30.28 in
Visibility 10.0 miles
Clouds Overcast 1100 ft
Heat Index 85 °F
Dew Point 79 °F
Humidity 99%
Rainfall 0.00 in
Snow Depth Not available.
UV 2 out of 12
Pollen .60 out of 12
Air Quality Not available.
Flu Activity Sporadic
METAR KEZM 271415Z AUTO 15006KT 10SM OVC011 26/24 A3028 RMK AO2 T02550243

More Conditions Fewer Conditions

10-Day Weather Forecast

Almanac

Astronomy

May. 27, 2015 Rise Set
Actual Time
Civil Twilight
Nautical Twilight
Astronomical Twilight
Moon
Length of Visible Light
Length of Day
Tomorrow will be .
, % of the Moon is Illuminated

Today's Extremes

State Highs State Lows

Community

WunderPhotos

Upload Photos

1,824,684 photos uploaded!

WunderBlogs® & News

Nearby

Air Quality

  Air Quality AQ Index Pollutant
Not available.

Snow Depth

Station Depth Elevation

Earthquake Activity

City Distance Mag. Time & Date
Minimum magnitude displayed is 2.5.

Coastal Water Temperatures

Place Temperature

Stations

Nearby Weather Stations

Station Location Temp. Windchill Dew Point Humidity Wind Precip. Elev Updated Type